Dover, AR (72837)

2:59 PM CDT on March 24, 2017 (GMT -0500)
Morgan Road | | Change Station
Active Advisory: Lake Wind Advisory

Elev 650 ft 35.36 °N, 93.09 °W | Updated 2 seconds ago

Mostly Cloudy
Mostly Cloudy
73.6 °F
Feels Like 77 °F
N
9.0
Wind Variable Wind from ESE
Gusts 16.0 mph

Today
High -- | Low -- °F
--% Chance of Precip.
Yesterday
High -- | Low -- °F
Precip. -- in
Pressure 29.90 in
Visibility 10.0 miles
Clouds Scattered Clouds 5000 ft
Mostly Cloudy 7000 ft
Mostly Cloudy 8000 ft
Heat Index 77 °F
Dew Point 58 °F
Humidity 58%
Rainfall 0.00 in
Snow Depth Not available.
7:09 AM 7:27 PM
Waning Crescent, 13% visible
METAR KRUE 241953Z AUTO 18014G23KT 10SM SCT050 BKN070 BKN080 24/13 A2992 RMK AO2 SLP125 T02440128
Pressure 29.90 in
Visibility 10.0 miles
Clouds Scattered Clouds 5000 ft
Mostly Cloudy 7000 ft
Mostly Cloudy 8000 ft
Heat Index 77 °F
Dew Point 58 °F
Humidity 58%
Rainfall 0.00 in
Snow Depth Not available.
7:09 AM 7:27 PM
Waning Crescent, 13% visible
METAR KRUE 241953Z AUTO 18014G23KT 10SM SCT050 BKN070 BKN080 24/13 A2992 RMK AO2 SLP125 T02440128

Get Your Daily Forecast Email!

Thanks for signing up!

Be on the lookout for a verification email in your inbox.

You'll start receiving severe weather alerts in your inbox..

×

10-Day Weather Forecast

Almanac

Astronomy

Mar. 24, 2017 Rise Set
Actual Time
Civil Twilight
Nautical Twilight
Astronomical Twilight
Moon
Length of Visible Light
Length of Day
Tomorrow will be .
, % of the Moon is Illuminated

Today's Extremes

State Highs State Lows

Community

WunderPhotos

Upload Photos

1,962,540 photos uploaded!

WunderBlog® & News

Nearby

Air Quality

  Air Quality AQ Index Pollutant
Not available.

Snow Depth

Station Depth Elevation

Earthquake Activity

City Distance Mag. Time & Date
Minimum magnitude displayed is 2.5.

Earthquake Activity

City Distance Mag. Time & Date
Minimum magnitude displayed is 2.5.

Coastal Water Temperatures

Place Temperature

Stations

Nearby Weather Stations

Station Location Temp. Windchill Dew Point Humidity Wind Precip. Elev Updated Type
                   

Watches & Warnings

Lake Wind Advisory
Issued: 1:59 PM CDT Mar. 24, 2017 – National Weather Service

... Lake Wind Advisory remains in effect until 10 PM CDT this
evening...

* event: expect breezy southerly winds of 15 to 25 mph... with
gusts of 30 to 35 mph possible.

* Areas affected: a large portion of Arkansas.

* Timing: expect the breezy conditions to continue through the
early evening hours. Then expect the breezy conditions to gradually
decrease by late evening.

Precautionary/preparedness actions...

A lake Wind Advisory indicates that winds will cause rough chop
on area lakes and rivers. Small boats will be especially prone to
capsizing. Extra caution should be taken if out on area lakes and
rivers today.